Isle St George, Ohio
Current Conditions -  °F | °C
As of 11:12 AM on Monday 22 Dec 2014 (Local Time) from KPCW Reporting Station
Clear Clear  
Wind Chill: 28°   Ceiling: Unl
Heat Index: 34°   Visibility: 10mi
Dew Point: 27°   Wind: 7mph
Humidity: 75%   Direction: 130°SE
Pressure: 30.05"   Gusts: NA
Location:  41.7244°N, 82.8167°W
Report Text: KPCW 221612Z AUTO 13006KT 10SM CLR 01/M03 A3005 RMK AO2 $
Loading
Personal Weather Stations






























Interactive Weather Map New forecast layout! Learn more

10-Day Weather Forecast

Advertisements
Track Severe Weather on mobile